createdAt,value
2022-09-17T00:09:08.368Z,5.20
2022-09-17T00:11:39.474Z,5.10
2022-09-17T00:14:10.142Z,5.00
2022-09-17T00:16:40.729Z,5.00
2022-09-17T00:19:13.981Z,5.00
2022-09-17T00:21:42.241Z,5.00
2022-09-17T00:24:14.353Z,5.00
2022-09-17T00:26:42.789Z,5.00
2022-09-17T00:34:07.284Z,5.10
2022-09-17T00:36:37.162Z,5.00
2022-09-17T00:39:06.846Z,4.90
2022-09-17T00:41:36.430Z,4.80
2022-09-17T00:44:41.870Z,4.70
2022-09-17T00:47:34.245Z,4.60
2022-09-17T00:50:12.550Z,4.50
2022-09-17T00:52:44.014Z,4.50
2022-09-17T00:55:46.972Z,4.40
2022-09-17T00:58:18.744Z,4.40
2022-09-17T01:06:05.010Z,4.40
2022-09-17T01:08:51.608Z,4.50
2022-09-17T01:11:48.346Z,4.50
2022-09-17T01:14:42.954Z,4.50
2022-09-17T01:17:42.678Z,4.30
2022-09-17T01:20:37.708Z,4.40
2022-09-17T01:25:42.627Z,4.40
2022-09-17T01:28:34.480Z,4.40
2022-09-17T01:34:11.519Z,4.50
2022-09-17T01:37:02.043Z,4.50
2022-09-17T01:39:39.609Z,4.50
2022-09-17T01:42:07.322Z,4.60
2022-09-17T01:45:03.379Z,4.60
2022-09-17T01:47:43.887Z,4.70
2022-09-17T01:50:17.524Z,4.70
2022-09-17T01:52:49.084Z,4.80
2022-09-17T01:55:19.734Z,4.90
2022-09-17T01:58:07.289Z,5.00
2022-09-17T02:00:38.859Z,4.90
2022-09-17T02:03:17.605Z,4.90
2022-09-17T02:08:50.925Z,4.70
2022-09-17T02:11:19.637Z,4.60
2022-09-17T02:14:00.353Z,4.60
2022-09-17T02:16:32.852Z,4.50
2022-09-17T02:19:28.104Z,4.50
2022-09-17T02:22:17.081Z,4.40
2022-09-17T02:24:47.648Z,4.40
2022-09-17T02:27:37.081Z,4.30
2022-09-17T02:30:05.982Z,6.30
2022-09-17T02:35:01.776Z,4.10
2022-09-17T02:37:29.541Z,4.00
2022-09-17T02:39:57.759Z,4.00
2022-09-17T02:42:36.159Z,4.00
2022-09-17T02:45:10.282Z,4.00
2022-09-17T02:48:09.035Z,4.00
2022-09-17T02:50:51.805Z,3.90
2022-09-17T02:53:35.470Z,4.00
2022-09-17T02:56:14.541Z,3.50
2022-09-17T02:59:03.026Z,3.90
2022-09-17T03:01:41.188Z,3.90
2022-09-17T03:04:12.935Z,3.80
2022-09-17T03:06:45.204Z,3.80
2022-09-17T03:09:16.801Z,3.80
2022-09-17T03:19:08.412Z,3.70
2022-09-17T03:24:04.113Z,3.50
2022-09-17T03:28:59.929Z,3.50
2022-09-17T03:36:25.052Z,3.50
2022-09-17T03:38:56.705Z,3.50
2022-09-17T03:43:53.415Z,3.40
2022-09-17T03:46:21.229Z,3.40
2022-09-17T03:51:16.656Z,3.20
2022-09-17T03:56:13.563Z,3.20
2022-09-17T04:06:05.017Z,3.00
2022-09-17T04:18:25.475Z,3.00
2022-09-17T04:20:53.589Z,3.00
2022-09-17T04:23:21.100Z,3.00
2022-09-17T04:33:12.399Z,2.90
2022-09-17T04:38:07.805Z,2.80
2022-09-17T04:55:27.511Z,2.80
2022-09-17T05:00:24.256Z,2.70
2022-09-17T05:02:55.296Z,2.70
2022-09-17T05:10:21.918Z,2.60
2022-09-17T05:12:51.185Z,2.70
2022-09-17T05:15:19.686Z,2.70
2022-09-17T05:20:18.010Z,2.80
2022-09-17T05:22:47.648Z,2.70
2022-09-17T05:25:17.426Z,2.60
2022-09-17T05:27:45.623Z,2.60
2022-09-17T05:30:13.413Z,2.60
2022-09-17T05:35:09.603Z,2.40
2022-09-17T05:40:07.868Z,2.40
2022-09-17T05:52:28.991Z,2.30
2022-09-17T05:59:53.160Z,2.30
2022-09-17T06:02:20.827Z,2.30
2022-09-17T06:12:12.514Z,2.50
2022-09-17T06:22:05.845Z,2.70
2022-09-17T06:27:01.376Z,2.80
2022-09-17T06:34:26.811Z,3.20
2022-09-17T06:46:51.385Z,3.60
2022-09-17T06:54:15.698Z,3.80
2022-09-17T06:59:11.230Z,6.20
2022-09-17T07:06:35.034Z,4.40
2022-09-17T07:09:02.802Z,4.60
2022-09-17T07:23:54.461Z,5.50
2022-09-17T07:26:22.678Z,8.40
2022-09-17T07:28:50.360Z,5.60
2022-09-17T07:31:18.487Z,5.70
2022-09-17T07:36:18.143Z,5.80
2022-09-17T07:41:16.987Z,6.30
2022-09-17T07:43:45.352Z,6.60
2022-09-17T07:46:19.627Z,6.90
2022-09-17T07:48:49.148Z,7.30
2022-09-17T07:51:25.736Z,7.60
2022-09-17T07:53:58.848Z,8.00
2022-09-17T07:56:28.027Z,8.20
2022-09-17T08:03:56.067Z,8.80
2022-09-17T08:06:28.810Z,8.90
2022-09-17T08:11:51.920Z,9.10
2022-09-17T08:16:47.685Z,9.30
2022-09-17T08:21:46.279Z,9.60
2022-09-17T08:24:13.876Z,9.60
2022-09-17T08:31:39.385Z,9.90
2022-09-17T08:34:07.939Z,9.90
2022-09-17T08:44:03.672Z,10.30
2022-09-17T08:46:43.768Z,10.40
2022-09-17T08:49:26.088Z,10.40
2022-09-17T08:52:15.683Z,10.60
2022-09-17T08:55:04.694Z,10.60
2022-09-17T08:57:41.335Z,10.60
2022-09-17T09:00:22.739Z,10.70
2022-09-17T09:03:17.801Z,10.70
2022-09-17T09:05:47.950Z,10.80
2022-09-17T09:08:30.442Z,10.90
2022-09-17T09:11:01.675Z,10.90
2022-09-17T09:13:36.524Z,11.00
2022-09-17T09:16:12.907Z,11.10
2022-09-17T09:18:42.414Z,11.10
2022-09-17T09:21:27.686Z,11.30
2022-09-17T09:24:19.233Z,11.40
2022-09-17T09:26:58.897Z,11.60
2022-09-17T09:29:38.771Z,11.60
2022-09-17T09:34:45.931Z,11.80
2022-09-17T09:37:31.398Z,11.70
2022-09-17T09:40:16.480Z,11.90
2022-09-17T09:42:46.546Z,12.00
2022-09-17T09:45:19.416Z,12.20
2022-09-17T09:48:23.845Z,12.20
2022-09-17T09:51:11.852Z,12.40
2022-09-17T09:54:07.281Z,12.50
2022-09-17T09:56:46.133Z,12.70
2022-09-17T09:59:14.101Z,12.70
2022-09-17T10:01:45.418Z,12.70
2022-09-17T10:04:32.998Z,12.60
2022-09-17T10:07:05.879Z,12.80
2022-09-17T10:09:37.008Z,12.80
2022-09-17T10:12:09.415Z,12.80
2022-09-17T10:14:39.325Z,12.80
2022-09-17T10:17:23.808Z,12.80
2022-09-17T10:20:07.863Z,12.90
2022-09-17T10:22:40.324Z,13.00
2022-09-17T10:25:18.947Z,13.20
2022-09-17T10:27:48.436Z,13.10
2022-09-17T10:30:19.138Z,13.10
2022-09-17T10:33:15.750Z,13.10
2022-09-17T10:35:56.344Z,13.30
2022-09-17T10:38:33.798Z,13.40
2022-09-17T10:41:25.215Z,13.40
2022-09-17T10:43:52.959Z,13.60
2022-09-17T10:46:29.367Z,13.50
2022-09-17T10:49:29.585Z,13.50
2022-09-17T10:52:34.536Z,13.80
2022-09-17T10:55:27.851Z,13.90
2022-09-17T10:58:07.856Z,14.00
2022-09-17T11:00:55.230Z,13.90
2022-09-17T11:03:51.794Z,14.00
2022-09-17T11:09:04.309Z,14.00
2022-09-17T11:12:00.136Z,14.10
2022-09-17T11:14:52.519Z,14.00
2022-09-17T11:17:38.612Z,14.10
2022-09-17T11:20:26.628Z,17.80
2022-09-17T11:23:34.349Z,14.20
2022-09-17T11:26:20.910Z,14.30
2022-09-17T11:28:54.627Z,14.40
2022-09-17T11:34:14.078Z,14.40
2022-09-17T11:36:53.638Z,14.50
2022-09-17T11:40:05.079Z,14.60
2022-09-17T11:42:41.422Z,14.50
2022-09-17T11:45:19.351Z,14.60
2022-09-17T11:48:07.373Z,14.60
2022-09-17T11:50:42.992Z,14.70
2022-09-17T11:53:22.444Z,14.80
2022-09-17T11:56:05.888Z,14.90
2022-09-17T11:59:12.301Z,15.00
2022-09-17T12:02:02.429Z,15.20
2022-09-17T12:04:52.139Z,15.30
2022-09-17T12:07:41.424Z,15.30
2022-09-17T12:10:31.996Z,15.50
2022-09-17T12:13:14.821Z,15.60
2022-09-17T12:15:53.094Z,15.60
2022-09-17T12:18:31.655Z,15.50
2022-09-17T12:21:02.970Z,15.60
2022-09-17T12:23:52.231Z,15.50
2022-09-17T12:26:55.311Z,15.50
2022-09-17T12:29:31.401Z,15.40
2022-09-17T12:34:46.763Z,15.40
2022-09-17T12:37:35.052Z,15.40
2022-09-17T12:40:33.187Z,15.40
2022-09-17T12:43:28.790Z,15.40
2022-09-17T12:46:04.595Z,15.30
2022-09-17T12:48:52.697Z,15.30
2022-09-17T12:51:29.745Z,15.40
2022-09-17T12:54:17.294Z,15.30
2022-09-17T12:57:07.115Z,15.60
2022-09-17T12:59:41.122Z,15.60
2022-09-17T13:03:10.228Z,15.90
2022-09-17T13:06:04.924Z,16.00
2022-09-17T13:08:59.635Z,16.10
2022-09-17T13:11:49.112Z,16.30
2022-09-17T13:14:38.072Z,16.50
2022-09-17T13:17:09.887Z,16.70
2022-09-17T13:19:55.610Z,16.80
2022-09-17T13:22:30.469Z,17.00
2022-09-17T13:25:10.063Z,17.10
2022-09-17T13:27:39.385Z,17.20
2022-09-17T13:30:09.840Z,17.40
2022-09-17T13:32:38.977Z,17.70
2022-09-17T13:35:09.742Z,17.70
2022-09-17T13:37:54.655Z,17.90
2022-09-17T13:40:38.390Z,17.70
2022-09-17T13:43:08.832Z,17.60
2022-09-17T13:45:59.192Z,17.10
2022-09-17T13:48:31.130Z,16.80
2022-09-17T13:51:30.740Z,18.90
2022-09-17T13:54:09.848Z,16.70
2022-09-17T13:56:44.326Z,16.90
2022-09-17T13:59:27.876Z,17.10
2022-09-17T14:02:01.818Z,17.20
2022-09-17T14:04:47.082Z,17.30
2022-09-17T14:07:24.126Z,17.80
2022-09-17T14:09:51.906Z,18.30
2022-09-17T14:12:48.659Z,18.60
2022-09-17T14:15:54.663Z,18.70
2022-09-17T14:18:28.554Z,19.00
2022-09-17T14:21:14.643Z,19.00
2022-09-17T14:23:45.303Z,18.90
2022-09-17T14:26:25.352Z,18.60
2022-09-17T14:29:30.149Z,18.50
2022-09-17T14:31:58.308Z,18.40
2022-09-17T14:34:27.382Z,18.10
2022-09-17T14:36:56.241Z,17.60
2022-09-17T14:39:28.641Z,17.40
2022-09-17T14:41:56.458Z,17.30
2022-09-17T14:44:27.270Z,17.30
2022-09-17T14:46:57.349Z,17.30
2022-09-17T14:49:28.395Z,17.20
2022-09-17T14:51:58.023Z,16.90
2022-09-17T14:54:35.107Z,16.70
2022-09-17T14:57:09.059Z,16.60
2022-09-17T14:59:50.792Z,16.90
2022-09-17T15:02:33.625Z,16.90
2022-09-17T15:10:13.332Z,17.40
2022-09-17T15:12:41.045Z,17.90
2022-09-17T15:15:26.339Z,18.10
2022-09-17T15:17:55.367Z,17.70
2022-09-17T15:20:28.024Z,17.50
2022-09-17T15:23:14.309Z,17.20
2022-09-17T15:25:44.290Z,17.20
2022-09-17T15:28:36.615Z,16.50
2022-09-17T15:31:06.674Z,16.30
2022-09-17T15:33:34.487Z,16.30
2022-09-17T15:36:22.064Z,16.50
2022-09-17T15:38:51.185Z,16.70
2022-09-17T15:41:25.339Z,16.60
2022-09-17T15:44:03.715Z,16.60
2022-09-17T15:46:41.031Z,16.70
2022-09-17T15:49:35.597Z,17.00
2022-09-17T15:52:28.305Z,17.20
2022-09-17T15:54:56.020Z,17.00
2022-09-17T15:57:25.305Z,16.90
2022-09-17T15:59:53.780Z,16.80
2022-09-17T16:02:31.166Z,16.80
2022-09-17T16:05:15.423Z,17.10
2022-09-17T16:07:45.242Z,17.40
2022-09-17T16:10:15.549Z,17.90
2022-09-17T16:12:44.060Z,17.80
2022-09-17T16:15:13.540Z,17.50
2022-09-17T16:17:48.403Z,17.50
2022-09-17T16:20:24.840Z,18.20
2022-09-17T16:22:53.553Z,18.50
2022-09-17T16:25:27.449Z,18.60
2022-09-17T16:28:02.360Z,18.70
2022-09-17T16:30:30.162Z,18.80
2022-09-17T16:32:58.575Z,18.80
2022-09-17T16:35:26.863Z,18.70
2022-09-17T16:37:56.288Z,18.40
2022-09-17T16:40:27.826Z,18.10
2022-09-17T16:42:55.946Z,17.70
2022-09-17T16:45:28.111Z,17.70
2022-09-17T16:47:56.775Z,17.40
2022-09-17T16:50:24.872Z,17.60
2022-09-17T16:52:53.618Z,17.60
2022-09-17T16:55:21.979Z,17.70
2022-09-17T16:57:49.945Z,17.30
2022-09-17T17:00:19.713Z,17.30
2022-09-17T17:02:55.888Z,16.30
2022-09-17T17:05:25.217Z,16.10
2022-09-17T17:07:55.030Z,16.10
2022-09-17T17:10:24.035Z,15.90
2022-09-17T17:12:52.504Z,15.80
2022-09-17T17:17:49.861Z,15.10
2022-09-17T17:20:17.994Z,15.10
2022-09-17T17:22:45.463Z,14.70
2022-09-17T17:25:14.552Z,15.00
2022-09-17T17:27:42.368Z,15.00
2022-09-17T17:30:16.534Z,15.00
2022-09-17T17:32:46.085Z,15.00
2022-09-17T17:35:13.999Z,15.40
2022-09-17T17:40:10.511Z,15.70
2022-09-17T17:42:39.562Z,15.90
2022-09-17T17:45:08.039Z,15.80
2022-09-17T17:47:35.721Z,15.50
2022-09-17T17:50:04.432Z,15.10
2022-09-17T17:52:32.191Z,14.70
2022-09-17T17:57:27.678Z,14.20
2022-09-17T17:59:55.477Z,14.00
2022-09-17T18:02:23.293Z,13.80
2022-09-17T18:04:50.922Z,13.70
2022-09-17T18:09:47.130Z,13.60
2022-09-17T18:12:14.911Z,13.50
2022-09-17T18:14:42.445Z,13.50
2022-09-17T18:19:37.929Z,13.40
2022-09-17T18:22:05.370Z,13.30
2022-09-17T18:24:33.097Z,13.20
2022-09-17T18:27:00.787Z,13.20
2022-09-17T18:29:29.205Z,13.20
2022-09-17T18:34:24.817Z,13.10
2022-09-17T18:36:52.716Z,13.10
2022-09-17T18:42:09.584Z,13.10
2022-09-17T18:44:37.196Z,16.60
2022-09-17T18:49:32.770Z,13.10
2022-09-17T18:52:00.519Z,13.20
2022-09-17T18:54:28.111Z,13.20
2022-09-17T18:59:23.713Z,13.20
2022-09-17T19:01:51.413Z,13.10
2022-09-17T19:06:46.949Z,13.10
2022-09-17T19:14:10.857Z,13.10
2022-09-17T19:16:38.542Z,13.10
2022-09-17T19:19:06.043Z,13.20
2022-09-17T19:24:03.497Z,13.10
2022-09-17T19:26:31.189Z,13.00
2022-09-17T19:29:00.518Z,13.00
2022-09-17T19:31:28.952Z,12.80
2022-09-17T19:33:58.502Z,13.00
2022-09-17T19:36:26.463Z,13.00
2022-09-17T19:38:54.202Z,13.00
2022-09-17T19:41:25.495Z,13.00
2022-09-17T19:43:54.798Z,13.00
2022-09-17T19:46:24.430Z,13.00
2022-09-17T19:48:57.186Z,13.00
2022-09-17T19:51:27.051Z,13.00
2022-09-17T19:56:24.416Z,13.00
2022-09-17T19:58:52.295Z,13.10
2022-09-17T20:01:20.143Z,13.10
2022-09-17T20:03:47.800Z,13.10
2022-09-17T20:06:18.176Z,13.10
2022-09-17T20:08:47.654Z,13.10
2022-09-17T20:11:16.986Z,13.10
2022-09-17T20:13:44.672Z,13.10
2022-09-17T20:16:18.310Z,13.00
2022-09-17T20:18:47.225Z,13.00
2022-09-17T20:21:17.656Z,12.90
2022-09-17T20:23:45.716Z,12.90
2022-09-17T20:26:14.739Z,12.80
2022-09-17T20:28:42.833Z,12.80
2022-09-17T20:31:14.755Z,12.80
2022-09-17T20:36:19.870Z,12.70
2022-09-17T20:41:38.849Z,12.70
2022-09-17T20:44:07.399Z,12.70
2022-09-17T20:49:02.949Z,12.70
2022-09-17T20:51:32.778Z,12.60
2022-09-17T20:56:35.278Z,12.60
2022-09-17T20:59:13.153Z,15.00
2022-09-17T21:01:41.630Z,12.60
2022-09-17T21:06:38.333Z,12.60
2022-09-17T21:09:06.713Z,12.60
2022-09-17T21:11:34.992Z,12.60
2022-09-17T21:14:02.724Z,12.60
2022-09-17T21:16:30.641Z,12.60
2022-09-17T21:19:01.584Z,12.50
2022-09-17T21:21:30.020Z,12.40
2022-09-17T21:24:02.199Z,12.40
2022-09-17T21:26:30.425Z,12.50
2022-09-17T21:28:58.520Z,12.50
2022-09-17T21:31:33.250Z,12.50
2022-09-17T21:34:06.255Z,12.50
2022-09-17T21:39:08.091Z,12.40
2022-09-17T21:41:39.912Z,12.30
2022-09-17T21:44:11.660Z,12.40
2022-09-17T21:46:40.499Z,12.40
2022-09-17T21:49:09.260Z,12.50
2022-09-17T21:51:39.269Z,12.60
2022-09-17T21:54:12.180Z,12.70
2022-09-17T21:56:40.029Z,12.80
2022-09-17T21:59:10.953Z,12.80
2022-09-17T22:04:20.677Z,13.00
2022-09-17T22:06:49.833Z,13.00
2022-09-17T22:11:38.165Z,12.90
2022-09-17T22:14:10.876Z,12.90
2022-09-17T22:16:44.077Z,13.00
2022-09-17T22:19:14.249Z,12.90
2022-09-17T22:21:46.016Z,12.90
2022-09-17T22:24:15.376Z,12.90
2022-09-17T22:26:46.094Z,12.90
2022-09-17T22:29:20.238Z,12.90
2022-09-17T22:34:20.002Z,13.00
2022-09-17T22:41:47.125Z,12.90
2022-09-17T22:44:16.737Z,13.00
2022-09-17T22:46:46.439Z,13.10
2022-09-17T22:49:14.822Z,13.10
2022-09-17T22:51:42.769Z,13.10
2022-09-17T22:54:12.480Z,13.00
2022-09-17T22:59:07.947Z,12.90
2022-09-17T23:01:36.565Z,12.90
2022-09-17T23:04:06.009Z,12.90
2022-09-17T23:06:36.321Z,12.90
2022-09-17T23:09:04.930Z,12.90
2022-09-17T23:11:35.669Z,12.90
2022-09-17T23:14:06.918Z,13.00
2022-09-17T23:16:36.741Z,12.90
2022-09-17T23:19:05.394Z,12.90
2022-09-17T23:21:33.278Z,12.90
2022-09-17T23:24:01.283Z,12.90
2022-09-17T23:26:28.889Z,12.90
2022-09-17T23:28:59.981Z,12.80
2022-09-17T23:33:59.490Z,11.20
2022-09-17T23:36:32.970Z,12.90
2022-09-17T23:39:02.484Z,12.80
2022-09-17T23:41:36.218Z,12.90
2022-09-17T23:44:10.746Z,12.80
2022-09-17T23:49:10.939Z,12.90
2022-09-17T23:51:38.914Z,12.80
2022-09-17T23:54:07.356Z,12.80
2022-09-17T23:56:35.758Z,12.70
2022-09-17T23:59:04.665Z,12.70
